Appleton, New York
Current Conditions -  °F | °C
As of 7:53 PM on Tuesday 21 Oct 2014 (Local Time) from KIAG Reporting Station
Light Rain Light Rain  
Wind Chill: 39°   Ceiling: 800
Heat Index: 46°   Visibility: 4mi
Dew Point: 44°   Wind: 17mph
Humidity: 93%   Direction: 30°NNE
Pressure: 30.04"   Gusts: NA
Location:  43.33°N, 78.65°W
Report Text: KIAG 212353Z 03015KT 4SM -RA BR BKN008 OVC016 08/07 A3004 RMK AO2 CIG 005V012 SLP178 P0000 60001 T00780067 10094 20078 51031
Loading
Personal Weather Stations






























Interactive Weather Map
Tropical Storm Tracking
New forecast layout! Learn more

10-Day Weather Forecast

Advertisements
Track Severe Weather on mobile